createdAt,value
2023-11-18T00:00:58.519Z,1020.68
2023-11-18T00:01:58.537Z,1020.70
2023-11-18T00:02:58.478Z,1020.70
2023-11-18T00:03:58.386Z,1020.67
2023-11-18T00:04:58.353Z,1020.70
2023-11-18T00:05:58.275Z,1020.70
2023-11-18T00:06:58.231Z,1020.65
2023-11-18T00:07:58.247Z,1020.65
2023-11-18T00:08:58.133Z,1020.66
2023-11-18T00:09:58.089Z,1020.66
2023-11-18T00:10:58.073Z,1020.67
2023-11-18T00:11:57.989Z,1020.70
2023-11-18T00:12:57.944Z,1020.70
2023-11-18T00:13:57.944Z,1020.69
2023-11-18T00:14:57.985Z,1020.70
2023-11-18T00:15:57.839Z,1020.71
2023-11-18T00:16:57.983Z,1020.67
2023-11-18T00:17:57.725Z,1020.74
2023-11-18T00:18:57.659Z,1020.74
2023-11-18T00:19:57.619Z,1020.74
2023-11-18T00:20:57.569Z,1020.72
2023-11-18T00:21:57.516Z,1020.74
2023-11-18T00:22:57.582Z,1020.68
2023-11-18T00:23:57.430Z,1020.72
2023-11-18T00:24:57.385Z,1020.67
2023-11-18T00:25:57.363Z,1020.66
2023-11-18T00:26:57.283Z,1020.61
2023-11-18T00:27:57.232Z,1020.63
2023-11-18T00:28:57.207Z,1020.61
2023-11-18T00:29:57.204Z,1020.65
2023-11-18T00:30:57.148Z,1020.64
2023-11-18T00:31:57.132Z,1020.67
2023-11-18T00:32:57.138Z,1020.69
2023-11-18T00:33:56.948Z,1020.67
2023-11-18T00:34:56.953Z,1020.66
2023-11-18T00:35:56.851Z,1020.66
2023-11-18T00:36:56.818Z,1020.61
2023-11-18T00:37:56.764Z,1020.63
2023-11-18T00:38:56.715Z,1020.59
2023-11-18T00:39:56.663Z,1020.56
2023-11-18T00:40:56.666Z,1020.55
2023-11-18T00:41:56.569Z,1020.57
2023-11-18T00:42:56.529Z,1020.55
2023-11-18T00:43:56.539Z,1020.55
2023-11-18T00:44:56.502Z,1020.54
2023-11-18T00:45:56.403Z,1020.58
2023-11-18T00:46:56.398Z,1020.57
2023-11-18T00:47:56.324Z,1020.56
2023-11-18T00:48:56.279Z,1020.55
2023-11-18T00:49:56.372Z,1020.53
2023-11-18T00:50:56.147Z,1020.52
2023-11-18T00:54:41.705Z,1020.50
2023-11-18T00:55:41.686Z,1020.46
2023-11-18T00:56:41.616Z,1020.44
2023-11-18T00:57:41.560Z,1020.42
2023-11-18T00:58:41.828Z,1020.44
2023-11-18T00:59:41.464Z,1020.45
2023-11-18T01:00:41.422Z,1020.47
2023-11-18T01:01:41.472Z,1020.53
2023-11-18T01:02:41.341Z,1020.56
2023-11-18T01:03:41.296Z,1020.49
2023-11-18T01:04:41.249Z,1020.47
2023-11-18T01:05:41.185Z,1020.46
2023-11-18T01:06:41.139Z,1020.50
2023-11-18T01:07:41.105Z,1020.49
2023-11-18T01:08:41.085Z,1020.44
2023-11-18T01:09:40.991Z,1020.49
2023-11-18T01:10:41.009Z,1020.46
2023-11-18T01:11:40.900Z,1020.49
2023-11-18T01:12:44.097Z,1020.46
2023-11-18T01:13:40.828Z,1020.43
2023-11-18T01:14:41.026Z,1020.48
2023-11-18T01:15:40.715Z,1020.43
2023-11-18T01:16:40.696Z,1020.49
2023-11-18T01:17:40.701Z,1020.50
2023-11-18T01:18:40.603Z,1020.49
2023-11-18T01:19:40.681Z,1020.56
2023-11-18T01:20:40.475Z,1020.52
2023-11-18T01:21:40.428Z,1020.54
2023-11-18T01:22:40.483Z,1020.57
2023-11-18T01:23:40.332Z,1020.56
2023-11-18T01:24:40.292Z,1020.57
2023-11-18T01:25:40.269Z,1020.64
2023-11-18T01:26:40.213Z,1020.67
2023-11-18T01:27:40.142Z,1020.67
2023-11-18T01:28:40.122Z,1020.66
2023-11-18T01:29:40.060Z,1020.70
2023-11-18T01:30:40.023Z,1020.72
2023-11-18T01:31:47.507Z,1020.70
2023-11-18T01:32:39.982Z,1020.78
2023-11-18T01:33:39.885Z,1020.82
2023-11-18T01:34:39.879Z,1020.79
2023-11-18T01:35:39.781Z,1020.86
2023-11-18T01:36:39.725Z,1020.73
2023-11-18T01:37:39.822Z,1020.84
2023-11-18T01:38:39.633Z,1020.83
2023-11-18T01:39:39.581Z,1020.88
2023-11-18T01:40:39.570Z,1020.91
2023-11-18T01:41:39.491Z,1020.89
2023-11-18T01:42:39.463Z,1020.88
2023-11-18T01:43:39.407Z,1020.86
2023-11-18T01:44:39.355Z,1020.85
2023-11-18T01:45:39.331Z,1020.87
2023-11-18T01:46:39.285Z,1020.86
2023-11-18T01:47:39.230Z,1020.84
2023-11-18T01:48:39.171Z,1020.90
2023-11-18T01:49:39.287Z,1020.84
2023-11-18T01:50:39.076Z,1020.83
2023-11-18T01:51:39.021Z,1020.90
2023-11-18T01:52:38.995Z,1020.85
2023-11-18T01:53:38.947Z,1020.88
2023-11-18T01:54:39.051Z,1020.87
2023-11-18T01:55:38.854Z,1020.86
2023-11-18T01:56:38.790Z,1020.82
2023-11-18T01:57:38.752Z,1020.79
2023-11-18T01:58:38.730Z,1020.86
2023-11-18T01:59:38.654Z,1020.80
2023-11-18T02:00:38.602Z,1020.78
2023-11-18T02:01:38.627Z,1020.77
2023-11-18T02:02:38.629Z,1020.76
2023-11-18T02:03:38.551Z,1020.76
2023-11-18T02:04:38.651Z,1020.77
2023-11-18T02:05:38.391Z,1020.77
2023-11-18T02:06:38.323Z,1020.78
2023-11-18T02:07:38.447Z,1020.83
2023-11-18T02:08:38.235Z,1020.83
2023-11-18T02:09:38.189Z,1020.79
2023-11-18T02:10:38.213Z,1020.80
2023-11-18T02:11:38.082Z,1020.77
2023-11-18T02:12:38.043Z,1020.77
2023-11-18T02:13:38.011Z,1020.79
2023-11-18T02:14:37.944Z,1020.82
2023-11-18T02:15:37.899Z,1020.78
2023-11-18T02:16:37.864Z,1020.84
2023-11-18T02:17:37.893Z,1020.82
2023-11-18T02:18:37.848Z,1020.83
2023-11-18T02:19:37.741Z,1020.77
2023-11-18T02:20:37.664Z,1020.80
2023-11-18T02:21:37.635Z,1020.77
2023-11-18T02:22:37.593Z,1020.75
2023-11-18T02:23:37.519Z,1020.72
2023-11-18T02:24:37.476Z,1020.69
2023-11-18T02:25:37.465Z,1020.68
2023-11-18T02:26:37.384Z,1020.68
2023-11-18T02:27:37.337Z,1020.66
2023-11-18T02:28:37.317Z,1020.64
2023-11-18T02:29:37.358Z,1020.60
2023-11-18T02:30:37.195Z,1020.61
2023-11-18T02:31:37.186Z,1020.55
2023-11-18T02:32:37.179Z,1020.54
2023-11-18T02:33:37.129Z,1020.56
2023-11-18T02:34:37.049Z,1020.58
2023-11-18T02:35:36.956Z,1020.57
2023-11-18T02:36:36.915Z,1020.58
2023-11-18T02:37:36.941Z,1020.61
2023-11-18T02:38:39.573Z,1020.54
2023-11-18T02:39:36.793Z,1020.53
2023-11-18T02:40:36.964Z,1020.51
2023-11-18T02:41:36.678Z,1020.47
2023-11-18T02:42:36.648Z,1020.51
2023-11-18T02:43:36.654Z,1020.56
2023-11-18T02:44:36.536Z,1020.52
2023-11-18T02:45:36.497Z,1020.53
2023-11-18T02:46:36.524Z,1020.57
2023-11-18T02:47:36.410Z,1020.55
2023-11-18T02:48:36.349Z,1020.62
2023-11-18T02:49:36.465Z,1020.61
2023-11-18T02:50:36.275Z,1020.63
2023-11-18T02:51:36.225Z,1020.67
2023-11-18T02:52:36.194Z,1020.67
2023-11-18T02:53:36.187Z,1020.62
2023-11-18T02:54:36.072Z,1020.62
2023-11-18T02:55:36.044Z,1020.65
2023-11-18T02:56:35.978Z,1020.66
2023-11-18T02:57:35.924Z,1020.67
2023-11-18T02:58:35.912Z,1020.66
2023-11-18T02:59:35.839Z,1020.69
2023-11-18T03:00:35.798Z,1020.69
2023-11-18T03:01:35.839Z,1020.72
2023-11-18T03:02:35.754Z,1020.69
2023-11-18T03:03:35.660Z,1020.66
2023-11-18T03:04:35.622Z,1020.62
2023-11-18T03:05:35.581Z,1020.59
2023-11-18T03:06:35.518Z,1020.60
2023-11-18T03:07:35.528Z,1020.58
2023-11-18T03:08:35.417Z,1020.54
2023-11-18T03:09:35.379Z,1020.52
2023-11-18T03:10:35.346Z,1020.49
2023-11-18T03:11:35.273Z,1020.46
2023-11-18T03:12:35.230Z,1020.48
2023-11-18T03:13:35.205Z,1020.49
2023-11-18T03:14:35.141Z,1020.46
2023-11-18T03:15:35.100Z,1020.47
2023-11-18T03:16:35.160Z,1020.42
2023-11-18T03:17:35.003Z,1020.39
2023-11-18T03:18:34.951Z,1020.41
2023-11-18T03:19:34.923Z,1020.36
2023-11-18T03:20:34.852Z,1020.36
2023-11-18T03:21:34.807Z,1020.36
2023-11-18T03:22:34.797Z,1020.31
2023-11-18T03:23:34.709Z,1020.32
2023-11-18T03:24:34.661Z,1020.33
2023-11-18T03:25:34.685Z,1020.29
2023-11-18T03:26:34.568Z,1020.30
2023-11-18T03:27:34.518Z,1020.27
2023-11-18T03:28:34.511Z,1020.26
2023-11-18T03:29:34.434Z,1020.21
2023-11-18T03:30:34.385Z,1020.22
2023-11-18T03:31:34.350Z,1020.20
2023-11-18T03:32:34.350Z,1020.19
2023-11-18T03:33:34.375Z,1020.16
2023-11-18T03:34:34.273Z,1020.17
2023-11-18T03:35:34.358Z,1020.18
2023-11-18T03:36:34.102Z,1020.21
2023-11-18T03:37:34.079Z,1020.27
2023-11-18T03:38:34.006Z,1020.27
2023-11-18T03:39:33.968Z,1020.29
2023-11-18T03:40:33.991Z,1020.22
2023-11-18T03:41:33.905Z,1020.21
2023-11-18T03:42:33.823Z,1020.23
2023-11-18T03:43:33.845Z,1020.23
2023-11-18T03:44:33.726Z,1020.23
2023-11-18T03:45:33.679Z,1020.24
2023-11-18T03:46:33.722Z,1020.23
2023-11-18T03:47:33.588Z,1020.30
2023-11-18T03:48:33.541Z,1020.27
2023-11-18T03:49:33.507Z,1020.31
2023-11-18T03:50:33.451Z,1020.36
2023-11-18T03:51:33.396Z,1020.40
2023-11-18T03:52:33.403Z,1020.37
2023-11-18T03:53:33.311Z,1020.41
2023-11-18T03:54:33.461Z,1020.42
2023-11-18T03:55:33.246Z,1020.46
2023-11-18T03:56:33.163Z,1020.44
2023-11-18T03:57:33.145Z,1020.49
2023-11-18T03:58:33.121Z,1020.51
2023-11-18T03:59:33.036Z,1020.52
2023-11-18T04:00:32.979Z,1020.48
2023-11-18T04:01:33.058Z,1020.49
2023-11-18T04:02:32.994Z,1020.45
2023-11-18T04:03:32.966Z,1020.43
2023-11-18T04:04:32.842Z,1020.47
2023-11-18T04:05:34.310Z,1020.47
2023-11-18T04:06:32.725Z,1020.43
2023-11-18T04:07:32.760Z,1020.47
2023-11-18T04:08:32.606Z,1020.42
2023-11-18T04:09:32.559Z,1020.42
2023-11-18T04:11:32.465Z,1020.42
2023-11-18T04:12:32.416Z,1020.41
2023-11-18T04:13:32.433Z,1020.42
2023-11-18T04:14:32.370Z,1020.43
2023-11-18T04:15:32.293Z,1020.40
2023-11-18T04:16:32.249Z,1020.38
2023-11-18T04:17:32.248Z,1020.36
2023-11-18T04:18:32.135Z,1020.39
2023-11-18T04:19:32.104Z,1020.42
2023-11-18T04:20:32.048Z,1020.42
2023-11-18T04:21:32.009Z,1020.43
2023-11-18T04:22:32.055Z,1020.37
2023-11-18T04:23:31.911Z,1020.39
2023-11-18T04:24:31.891Z,1020.35
2023-11-18T04:26:24.204Z,1020.36
2023-11-18T04:27:24.169Z,1020.34
2023-11-18T04:28:24.113Z,1020.28
2023-11-18T04:29:24.086Z,1020.27
2023-11-18T04:30:24.017Z,1020.15
2023-11-18T04:31:23.966Z,1020.11
2023-11-18T04:32:23.947Z,1020.06
2023-11-18T04:33:23.876Z,1020.09
2023-11-18T04:34:23.835Z,1020.00
2023-11-18T04:35:23.813Z,1019.98
2023-11-18T04:36:23.733Z,1019.93
2023-11-18T04:37:23.687Z,1019.96
2023-11-18T04:38:23.655Z,1019.97
2023-11-18T04:39:23.619Z,1019.90
2023-11-18T04:40:23.550Z,1019.87
2023-11-18T04:41:23.499Z,1019.90
2023-11-18T04:42:23.455Z,1019.84
2023-11-18T04:43:30.784Z,1019.82
2023-11-18T04:44:23.403Z,1019.80
2023-11-18T04:45:23.341Z,1019.76
2023-11-18T04:47:23.285Z,1019.67
2023-11-18T04:48:23.267Z,1019.69
2023-11-18T04:49:23.151Z,1019.64
2023-11-18T04:50:23.088Z,1019.61
2023-11-18T04:51:23.034Z,1019.65
2023-11-18T04:52:23.010Z,1019.65
2023-11-18T04:53:22.948Z,1019.66
2023-11-18T04:54:22.911Z,1019.58
2023-11-18T04:55:22.853Z,1019.61
2023-11-18T04:56:22.800Z,1019.62
2023-11-18T05:00:03.382Z,1019.54
2023-11-18T05:01:03.330Z,1019.53
2023-11-18T05:02:03.318Z,1019.50
2023-11-18T05:03:03.288Z,1019.46
2023-11-18T05:04:04.608Z,1019.45
2023-11-18T05:05:03.180Z,1019.41
2023-11-18T05:06:03.086Z,1019.42
2023-11-18T05:07:03.038Z,1019.45
2023-11-18T05:08:03.022Z,1019.42
2023-11-18T05:09:02.985Z,1019.43
2023-11-18T05:10:02.901Z,1019.40
2023-11-18T05:11:02.931Z,1019.38
2023-11-18T05:12:02.803Z,1019.37
2023-11-18T05:13:02.751Z,1019.34
2023-11-18T05:14:02.774Z,1019.35
2023-11-18T05:15:02.688Z,1019.31
2023-11-18T05:16:02.629Z,1019.32
2023-11-18T05:17:02.629Z,1019.35
2023-11-18T05:18:02.547Z,1019.29
2023-11-18T05:19:02.476Z,1019.31
2023-11-18T05:20:02.451Z,1019.35
2023-11-18T05:21:02.383Z,1019.35
2023-11-18T05:22:02.333Z,1019.34
2023-11-18T05:23:02.362Z,1019.30
2023-11-18T05:24:02.240Z,1019.28
2023-11-18T05:25:02.198Z,1019.25
2023-11-18T05:26:02.235Z,1019.27
2023-11-18T05:27:02.099Z,1019.24
2023-11-18T05:28:02.051Z,1019.25
2023-11-18T05:29:02.038Z,1019.24
2023-11-18T05:30:01.961Z,1019.27
2023-11-18T05:31:01.990Z,1019.19
2023-11-18T05:32:01.944Z,1019.27
2023-11-18T05:33:01.928Z,1019.23
2023-11-18T05:34:01.767Z,1019.21
2023-11-18T05:35:01.799Z,1019.18
2023-11-18T05:36:01.677Z,1019.24
2023-11-18T05:37:01.630Z,1019.21
2023-11-18T05:38:01.628Z,1019.20
2023-11-18T05:39:01.533Z,1019.20
2023-11-18T05:40:01.494Z,1019.23
2023-11-18T05:41:01.514Z,1019.24
2023-11-18T05:42:01.402Z,1019.19
2023-11-18T05:43:01.364Z,1019.22
2023-11-18T05:44:01.321Z,1019.22
2023-11-18T05:45:01.255Z,1019.24
2023-11-18T05:46:01.233Z,1019.28
2023-11-18T05:47:01.232Z,1019.29
2023-11-18T05:48:01.146Z,1019.33
2023-11-18T05:49:01.099Z,1019.34
2023-11-18T05:51:28.445Z,1019.35
2023-11-18T05:52:28.393Z,1019.37
2023-11-18T05:53:34.266Z,1019.38
2023-11-18T05:54:28.307Z,1019.35
2023-11-18T05:55:28.256Z,1019.29
2023-11-18T05:56:28.208Z,1019.27
2023-11-18T05:57:28.161Z,1019.25
2023-11-18T05:58:28.121Z,1019.25
2023-11-18T05:59:28.093Z,1019.21
2023-11-18T06:00:33.512Z,1019.17
2023-11-18T06:01:28.001Z,1019.15
2023-11-18T06:03:15.349Z,1019.10
2023-11-18T06:05:07.784Z,1019.06
2023-11-18T06:06:07.616Z,1019.02
2023-11-18T06:07:07.571Z,1019.09
2023-11-18T06:08:07.541Z,1019.05
2023-11-18T06:09:07.472Z,1019.06
2023-11-18T06:10:07.425Z,1019.08
2023-11-18T06:11:59.761Z,1019.06
2023-11-18T06:12:59.714Z,1019.05
2023-11-18T06:13:59.718Z,1019.08
2023-11-18T06:14:59.631Z,1019.03
2023-11-18T06:15:59.574Z,1019.06
2023-11-18T06:16:59.571Z,1019.05
2023-11-18T06:17:59.567Z,1019.00
2023-11-18T06:18:59.432Z,1018.91
2023-11-18T06:19:59.426Z,1018.88
2023-11-18T06:20:59.404Z,1018.83
2023-11-18T06:21:59.296Z,1018.80
2023-11-18T06:22:59.288Z,1018.79
2023-11-18T06:23:59.205Z,1018.73
2023-11-18T06:24:59.162Z,1018.77
2023-11-18T06:25:59.127Z,1018.76
2023-11-18T06:26:59.066Z,1018.74
2023-11-18T06:27:59.013Z,1018.78
2023-11-18T06:28:59.028Z,1018.82
2023-11-18T06:29:58.923Z,1018.89
2023-11-18T06:30:58.873Z,1018.90
2023-11-18T06:31:58.882Z,1018.93
2023-11-18T06:32:58.869Z,1018.94
2023-11-18T06:33:58.788Z,1018.95
2023-11-18T06:34:58.725Z,1018.98
2023-11-18T06:35:58.640Z,1019.00
2023-11-18T06:36:58.616Z,1019.00
2023-11-18T06:37:58.569Z,1018.99
2023-11-18T06:38:58.495Z,1018.96
2023-11-18T06:39:58.459Z,1018.95
2023-11-18T06:40:58.467Z,1018.94
2023-11-18T06:41:58.446Z,1018.93
2023-11-18T06:42:58.310Z,1018.96
2023-11-18T06:43:58.920Z,1018.94
2023-11-18T06:45:00.835Z,1018.95
2023-11-18T06:45:58.173Z,1018.88
2023-11-18T06:46:58.219Z,1018.90
2023-11-18T06:47:58.171Z,1018.85
2023-11-18T06:48:58.035Z,1018.86
2023-11-18T06:49:58.040Z,1018.85
2023-11-18T06:50:57.936Z,1018.86
2023-11-18T06:51:57.895Z,1018.86
2023-11-18T06:52:57.872Z,1018.87
2023-11-18T06:53:57.807Z,1018.90
2023-11-18T06:54:57.755Z,1018.91
2023-11-18T06:55:57.721Z,1018.94
2023-11-18T06:56:57.669Z,1018.96
2023-11-18T06:57:57.641Z,1018.98
2023-11-18T06:58:57.568Z,1018.98
2023-11-18T06:59:57.517Z,1019.07
2023-11-18T07:00:57.558Z,1019.08
2023-11-18T07:01:57.459Z,1019.08
2023-11-18T07:03:49.931Z,1019.02
2023-11-18T07:04:49.729Z,1019.05
2023-11-18T07:05:49.703Z,1019.01
2023-11-18T07:06:49.625Z,1019.09
2023-11-18T07:07:49.609Z,1019.09
2023-11-18T07:08:49.587Z,1019.10
2023-11-18T07:09:52.456Z,1019.07
